Seaexpressii — HO4619 — position and weather

sailwx.info

Track history (hours):
 
Tides and Currents Weather Stations Pressure Air Temp Water Temp Dewpoint Dewpoint Depression Visibility Wind Speed Wind Dir Waves Ship Positions

Seaexpressii

Last reported at 2016-Jun-26 08:26 UTC. Time now 2016-Jun-26 19:15 UTC.
Position N 25°57' W 079°33'.

Length 37 m; draft 2.2 m.

Type: Cargo ship. MMSI: 356449000.

Date/timePositionNaut miles runAvg speedWind from/ knotsBaromVisibWave heightAir tempDewpointWater temp
2016-Jun-26 08:26N 25°57' W 079°33'8 8.6
2016-Jun-26 07:33N 25°59' W 079°41'8 8.3
2016-Jun-26 06:33N 26°01' W 079°50'8 8.0
2016-Jun-26 05:33N 26°03' W 079°58'8 7.7
2016-Jun-26 04:33N 26°06' W 080°06'2 2.4
2016-Jun-26 03:33N 26°04' W 080°08'0 0.1
2016-Jun-26 02:33N 26°04' W 080°08'0 0.0
2016-Jun-26 01:33N 26°04' W 080°08'0 0.0
2016-Jun-26 00:33N 26°04' W 080°08'0 0.0
2016-Jun-25 23:33N 26°04' W 080°08'0 0.0
2016-Jun-25 22:33N 26°04' W 080°08'3 2.9
2016-Jun-25 21:33N 26°05' W 080°05'9 9.1
2016-Jun-25 20:33N 26°03' W 079°56'1010.1
2016-Jun-25 19:33N 25°60' W 079°45'1010.0
2016-Jun-25 18:33N 25°57' W 079°34'8 0.2
2016-Jun-23 23:30N 26°02' W 079°41'8 8.3
2016-Jun-23 22:33N 26°03' W 079°50'9 8.7
2016-Jun-23 21:33N 26°03' W 079°60'7 6.5
2016-Jun-23 20:33N 26°04' W 080°07'1 0.7
2016-Jun-23 19:26N 26°04' W 080°08'0 0.0
2016-Jun-23 18:29N 26°04' W 080°08'0 0.0
2016-Jun-23 17:29N 26°04' W 080°08'0 0.0
2016-Jun-23 16:32N 26°04' W 080°08'0 0.0
2016-Jun-23 15:32N 26°04' W 080°08'0 0.0
2016-Jun-23 14:32N 26°04' W 080°08'0 0.0
2016-Jun-23 13:32N 26°04' W 080°08'0 0.0
2016-Jun-23 12:32N 26°04' W 080°08'0 0.0
2016-Jun-23 11:32N 26°04' W 080°08'2 1.9
2016-Jun-23 10:33N 26°05' W 080°07'9 8.7
2016-Jun-23 09:33N 26°05' W 079°57'7 6.6
2016-Jun-23 08:33N 26°05' W 079°50'6 6.0
2016-Jun-23 07:33N 26°04' W 079°43'6 0.4
2016-Jun-22 15:07N 26°10' W 079°41'610.2
2016-Jun-22 14:33N 26°09' W 079°47'1010.1
2016-Jun-22 13:33N 26°05' W 079°57'9 8.6
2016-Jun-22 12:33N 26°05' W 080°07'2 1.8
2016-Jun-22 11:33N 26°04' W 080°08'0 0.0
2016-Jun-22 10:33N 26°04' W 080°08'0 0.0
2016-Jun-22 09:33N 26°04' W 080°08'0 0.0
2016-Jun-22 08:33N 26°04' W 080°08'0 0.0
2016-Jun-22 07:32N 26°04' W 080°08'0 0.0
2016-Jun-22 06:33N 26°04' W 080°08'0 0.0
2016-Jun-22 05:33N 26°04' W 080°08'0 0.0
2016-Jun-22 04:33N 26°04' W 080°08'4 3.9
2016-Jun-22 03:33N 26°04' W 080°03'1010.1
2016-Jun-22 02:33N 26°01' W 079°53'1010.0
2016-Jun-22 01:33N 25°58' W 079°42'  
2016-Jun-18 05:33N 25°58' W 079°30'9 9.3
2016-Jun-18 04:33N 25°60' W 079°40'9 9.3
2016-Jun-18 03:33N 26°01' W 079°50'9 9.4
2016-Jun-18 02:33N 26°03' W 080°00'7 6.6
2016-Jun-18 01:33N 26°04' W 080°08'0 0.1
2016-Jun-18 00:33N 26°04' W 080°08'0 0.0
2016-Jun-17 23:33N 26°04' W 080°08'0 0.0
2016-Jun-17 22:33N 26°04' W 080°08'0 0.0
2016-Jun-17 21:33N 26°04' W 080°08'0 0.0
2016-Jun-17 20:33N 26°04' W 080°08'0 0.0
2016-Jun-17 19:33N 26°04' W 080°08'0 0.0
2016-Jun-17 18:33N 26°04' W 080°08'0 0.0
2016-Jun-17 17:33N 26°04' W 080°08'0 0.0
2016-Jun-17 16:33N 26°04' W 080°08'0 0.0
2016-Jun-17 15:33N 26°04' W 080°08'0 0.0
2016-Jun-17 14:33N 26°04' W 080°08'5 5.5
2016-Jun-17 13:33N 26°04' W 080°02'10 9.9
2016-Jun-17 12:33N 26°00' W 079°52'10 9.7
2016-Jun-17 11:33N 25°57' W 079°42'9 9.3
2016-Jun-17 10:33N 25°53' W 079°32'  
Track history (hours):
 
Tides and Currents Weather Stations Pressure Air Temp Water Temp Dewpoint Dewpoint Depression Visibility Wind Speed Wind Dir Waves Ship Positions

Seaexpressii

Last reported at 2016-Jun-26 08:26 UTC. Time now 2016-Jun-26 19:15 UTC.
Position N 25°57' W 079°33'.

Length 37 m; draft 2.2 m.

Type: Cargo ship. MMSI: 356449000.

Date/timePositionNaut miles runAvg speedWind from/ knotsBaromVisibWave heightAir tempDewpointWater temp
2016-Jun-26 08:26N 25°57' W 079°33'8 8.6
2016-Jun-26 07:33N 25°59' W 079°41'8 8.3
2016-Jun-26 06:33N 26°01' W 079°50'8 8.0
2016-Jun-26 05:33N 26°03' W 079°58'8 7.7
2016-Jun-26 04:33N 26°06' W 080°06'2 2.4
2016-Jun-26 03:33N 26°04' W 080°08'0 0.1
2016-Jun-26 02:33N 26°04' W 080°08'0 0.0
2016-Jun-26 01:33N 26°04' W 080°08'0 0.0
2016-Jun-26 00:33N 26°04' W 080°08'0 0.0
2016-Jun-25 23:33N 26°04' W 080°08'0 0.0
2016-Jun-25 22:33N 26°04' W 080°08'3 2.9
2016-Jun-25 21:33N 26°05' W 080°05'9 9.1
2016-Jun-25 20:33N 26°03' W 079°56'1010.1
2016-Jun-25 19:33N 25°60' W 079°45'1010.0
2016-Jun-25 18:33N 25°57' W 079°34'8 0.2
2016-Jun-23 23:30N 26°02' W 079°41'8 8.3
2016-Jun-23 22:33N 26°03' W 079°50'9 8.7
2016-Jun-23 21:33N 26°03' W 079°60'7 6.5
2016-Jun-23 20:33N 26°04' W 080°07'1 0.7
2016-Jun-23 19:26N 26°04' W 080°08'0 0.0
2016-Jun-23 18:29N 26°04' W 080°08'0 0.0
2016-Jun-23 17:29N 26°04' W 080°08'0 0.0
2016-Jun-23 16:32N 26°04' W 080°08'0 0.0
2016-Jun-23 15:32N 26°04' W 080°08'0 0.0
2016-Jun-23 14:32N 26°04' W 080°08'0 0.0
2016-Jun-23 13:32N 26°04' W 080°08'0 0.0
2016-Jun-23 12:32N 26°04' W 080°08'0 0.0
2016-Jun-23 11:32N 26°04' W 080°08'2 1.9
2016-Jun-23 10:33N 26°05' W 080°07'9 8.7
2016-Jun-23 09:33N 26°05' W 079°57'7 6.6
2016-Jun-23 08:33N 26°05' W 079°50'6 6.0
2016-Jun-23 07:33N 26°04' W 079°43'6 0.4
2016-Jun-22 15:07N 26°10' W 079°41'610.2
2016-Jun-22 14:33N 26°09' W 079°47'1010.1
2016-Jun-22 13:33N 26°05' W 079°57'9 8.6
2016-Jun-22 12:33N 26°05' W 080°07'2 1.8
2016-Jun-22 11:33N 26°04' W 080°08'0 0.0
2016-Jun-22 10:33N 26°04' W 080°08'0 0.0
2016-Jun-22 09:33N 26°04' W 080°08'0 0.0
2016-Jun-22 08:33N 26°04' W 080°08'0 0.0
2016-Jun-22 07:32N 26°04' W 080°08'0 0.0
2016-Jun-22 06:33N 26°04' W 080°08'0 0.0
2016-Jun-22 05:33N 26°04' W 080°08'0 0.0
2016-Jun-22 04:33N 26°04' W 080°08'4 3.9
2016-Jun-22 03:33N 26°04' W 080°03'1010.1
2016-Jun-22 02:33N 26°01' W 079°53'1010.0
2016-Jun-22 01:33N 25°58' W 079°42'  
2016-Jun-18 05:33N 25°58' W 079°30'9 9.3
2016-Jun-18 04:33N 25°60' W 079°40'9 9.3
2016-Jun-18 03:33N 26°01' W 079°50'9 9.4
2016-Jun-18 02:33N 26°03' W 080°00'7 6.6
2016-Jun-18 01:33N 26°04' W 080°08'0 0.1
2016-Jun-18 00:33N 26°04' W 080°08'0 0.0
2016-Jun-17 23:33N 26°04' W 080°08'0 0.0
2016-Jun-17 22:33N 26°04' W 080°08'0 0.0
2016-Jun-17 21:33N 26°04' W 080°08'0 0.0
2016-Jun-17 20:33N 26°04' W 080°08'0 0.0
2016-Jun-17 19:33N 26°04' W 080°08'0 0.0
2016-Jun-17 18:33N 26°04' W 080°08'0 0.0
2016-Jun-17 17:33N 26°04' W 080°08'0 0.0
2016-Jun-17 16:33N 26°04' W 080°08'0 0.0
2016-Jun-17 15:33N 26°04' W 080°08'0 0.0
2016-Jun-17 14:33N 26°04' W 080°08'5 5.5
2016-Jun-17 13:33N 26°04' W 080°02'10 9.9
2016-Jun-17 12:33N 26°00' W 079°52'10 9.7
2016-Jun-17 11:33N 25°57' W 079°42'9 9.3
2016-Jun-17 10:33N 25°53' W 079°32'  

Dump ship's entire track history